DAL6299 KDCA-KLGA
Flight info
| Callsign | DAL6299 |
|---|---|
| Flight time | 0h 39m |
| Altitude | 21000 |
| Route | DOCTR5 AGARD SPEAK PROUD2 |
| Aircraft | B737/M-SDE2E3FGHIRWXY/LB1 |
Departure
| Time | 2026-05-04 18:36 |
|---|---|
| Airport | Ronald Reagan Washington National Airport (KDCA) |
Arrival
| Time | 2026-05-04 19:15 |
|---|---|
| Airport | LaGuardia Airport (KLGA) |
| Time | Latitude | Longitude | Altitude | Speed | Heading |
|---|---|---|---|---|---|
| 2026-05-04 18:11 | 38.85257 | -77.04122 | 25 ft | 0 kts | 200° |
| 2026-05-04 18:28 | 38.85263 | -77.04118 | 24 ft | 2 kts | 198° |
| 2026-05-04 18:29 | 38.85278 | -77.04112 | 24 ft | 2 kts | 201° |
| 2026-05-04 18:29 | 38.85289 | -77.04107 | 24 ft | 0 kts | 200° |
| 2026-05-04 18:29 | 38.85299 | -77.04104 | 24 ft | 2 kts | 164° |
| 2026-05-04 18:29 | 38.85311 | -77.04115 | 24 ft | 2 kts | 109° |
| 2026-05-04 18:30 | 38.85311 | -77.04135 | 25 ft | 0 kts | 77° |
| 2026-05-04 18:32 | 38.85316 | -77.04104 | 24 ft | 5 kts | 74° |
| 2026-05-04 18:32 | 38.85332 | -77.04041 | 23 ft | 9 kts | 65° |
| 2026-05-04 18:32 | 38.85388 | -77.04002 | 22 ft | 10 kts | 1° |
| 2026-05-04 18:32 | 38.85462 | -77.04008 | 22 ft | 10 kts | 354° |
| 2026-05-04 18:33 | 38.85531 | -77.04022 | 22 ft | 10 kts | 348° |
| 2026-05-04 18:33 | 38.85610 | -77.04039 | 21 ft | 12 kts | 354° |
| 2026-05-04 18:33 | 38.85694 | -77.04047 | 20 ft | 11 kts | 355° |
| 2026-05-04 18:33 | 38.85773 | -77.04055 | 20 ft | 11 kts | 355° |
| 2026-05-04 18:34 | 38.85857 | -77.04063 | 19 ft | 12 kts | 356° |
| 2026-05-04 18:34 | 38.85924 | -77.04032 | 18 ft | 10 kts | 63° |
| 2026-05-04 18:34 | 38.85973 | -77.03966 | 15 ft | 12 kts | 17° |
| 2026-05-04 18:34 | 38.86057 | -77.03932 | 15 ft | 12 kts | 28° |
| 2026-05-04 18:35 | 38.86064 | -77.03866 | 15 ft | 6 kts | 152° |
| 2026-05-04 18:35 | 38.85938 | -77.03853 | 16 ft | 50 kts | 176° |
| 2026-05-04 18:35 | 38.85331 | -77.03793 | 19 ft | 123 kts | 176° |
| 2026-05-04 18:35 | 38.84303 | -77.03725 | 262 ft | 159 kts | 181° |
| 2026-05-04 18:36 | 38.83242 | -77.03667 | 1101 ft | 154 kts | 173° |
| 2026-05-04 18:36 | 38.82164 | -77.03389 | 1722 ft | 168 kts | 170° |
| 2026-05-04 18:36 | 38.80934 | -77.03056 | 2059 ft | 199 kts | 172° |
| 2026-05-04 18:36 | 38.79496 | -77.02722 | 2563 ft | 223 kts | 173° |
| 2026-05-04 18:37 | 38.77901 | -77.02292 | 3236 ft | 242 kts | 165° |
| 2026-05-04 18:37 | 38.76421 | -77.01279 | 4186 ft | 252 kts | 142° |
| 2026-05-04 18:37 | 38.75368 | -76.99414 | 4923 ft | 273 kts | 111° |
| 2026-05-04 18:37 | 38.75036 | -76.96973 | 5637 ft | 288 kts | 92° |
| 2026-05-04 18:38 | 38.75234 | -76.94424 | 6499 ft | 296 kts | 73° |
| 2026-05-04 18:38 | 38.76056 | -76.91998 | 7395 ft | 300 kts | 55° |
| 2026-05-04 18:38 | 38.77461 | -76.90064 | 8321 ft | 299 kts | 35° |
| 2026-05-04 18:38 | 38.79155 | -76.88563 | 9230 ft | 301 kts | 28° |
| 2026-05-04 18:39 | 38.80932 | -76.87177 | 10188 ft | 301 kts | 26° |
| 2026-05-04 18:39 | 38.82743 | -76.85795 | 10696 ft | 319 kts | 26° |
| 2026-05-04 18:39 | 38.84695 | -76.84228 | 10962 ft | 346 kts | 32° |
| 2026-05-04 18:39 | 38.86476 | -76.82014 | 11556 ft | 366 kts | 49° |
| 2026-05-04 18:40 | 38.87788 | -76.79214 | 12439 ft | 373 kts | 58° |
| 2026-05-04 18:40 | 38.88948 | -76.76217 | 13263 ft | 379 kts | 60° |
| 2026-05-04 18:40 | 38.90077 | -76.73198 | 14099 ft | 382 kts | 60° |
| 2026-05-04 18:40 | 38.91229 | -76.70110 | 14916 ft | 386 kts | 60° |
| 2026-05-04 18:41 | 38.92389 | -76.67003 | 15722 ft | 389 kts | 60° |
| 2026-05-04 18:41 | 38.93567 | -76.63851 | 16495 ft | 393 kts | 60° |
| 2026-05-04 18:41 | 38.94725 | -76.60697 | 17254 ft | 397 kts | 62° |
| 2026-05-04 18:41 | 38.95816 | -76.57413 | 17990 ft | 401 kts | 63° |
| 2026-05-04 18:42 | 38.96883 | -76.54108 | 18701 ft | 405 kts | 63° |
| 2026-05-04 18:42 | 38.97967 | -76.50751 | 19374 ft | 409 kts | 63° |
| 2026-05-04 18:42 | 38.99055 | -76.47343 | 20070 ft | 413 kts | 64° |
| 2026-05-04 18:42 | 39.00019 | -76.43852 | 20714 ft | 419 kts | 68° |
| 2026-05-04 18:43 | 39.00783 | -76.40235 | 20987 ft | 425 kts | 74° |
| 2026-05-04 18:43 | 39.01300 | -76.36485 | 20986 ft | 436 kts | 77° |
| 2026-05-04 18:43 | 39.01745 | -76.32574 | 20988 ft | 444 kts | 79° |
| 2026-05-04 18:43 | 39.02172 | -76.28594 | 20982 ft | 448 kts | 79° |
| 2026-05-04 18:44 | 39.02580 | -76.24665 | 20982 ft | 448 kts | 79° |
| 2026-05-04 18:44 | 39.02850 | -76.22025 | 20984 ft | 448 kts | 79° |
| 2026-05-04 18:44 | 39.03386 | -76.16703 | 20986 ft | 448 kts | 79° |
| 2026-05-04 18:44 | 39.03775 | -76.12780 | 20987 ft | 448 kts | 79° |
| 2026-05-04 18:45 | 39.04169 | -76.08777 | 20989 ft | 448 kts | 80° |
| 2026-05-04 18:45 | 39.04502 | -76.04833 | 20987 ft | 450 kts | 83° |
| 2026-05-04 18:45 | 39.04700 | -76.00810 | 20989 ft | 451 kts | 84° |
| 2026-05-04 18:45 | 39.04873 | -75.96764 | 20986 ft | 450 kts | 84° |
| 2026-05-04 18:46 | 39.05043 | -75.92779 | 20986 ft | 450 kts | 84° |
| 2026-05-04 18:46 | 39.05215 | -75.88751 | 20985 ft | 450 kts | 84° |
| 2026-05-04 18:46 | 39.05394 | -75.84740 | 20983 ft | 450 kts | 83° |
| 2026-05-04 18:46 | 39.05783 | -75.80765 | 20980 ft | 447 kts | 76° |
| 2026-05-04 18:47 | 39.06522 | -75.76890 | 20978 ft | 443 kts | 68° |
| 2026-05-04 18:47 | 39.07756 | -75.73341 | 20974 ft | 437 kts | 54° |
| 2026-05-04 18:47 | 39.09569 | -75.70242 | 20990 ft | 431 kts | 45° |
| 2026-05-04 18:47 | 39.11569 | -75.67382 | 20974 ft | 431 kts | 43° |
| 2026-05-04 18:48 | 39.13613 | -75.64559 | 20964 ft | 430 kts | 42° |
| 2026-05-04 18:48 | 39.15663 | -75.61763 | 20962 ft | 430 kts | 42° |
| 2026-05-04 18:48 | 39.17721 | -75.58977 | 20963 ft | 430 kts | 41° |
| 2026-05-04 18:48 | 39.19798 | -75.56203 | 20962 ft | 429 kts | 40° |
| 2026-05-04 18:49 | 39.21939 | -75.53539 | 20962 ft | 427 kts | 37° |
| 2026-05-04 18:49 | 39.24227 | -75.51157 | 20965 ft | 424 kts | 32° |
| 2026-05-04 18:49 | 39.26604 | -75.48895 | 20965 ft | 424 kts | 31° |
| 2026-05-04 18:49 | 39.28959 | -75.46707 | 20966 ft | 423 kts | 31° |
| 2026-05-04 18:50 | 39.31372 | -75.44497 | 20971 ft | 423 kts | 30° |
| 2026-05-04 18:50 | 39.33769 | -75.42320 | 20975 ft | 423 kts | 30° |
| 2026-05-04 18:50 | 39.36175 | -75.40147 | 20971 ft | 416 kts | 30° |
| 2026-05-04 18:50 | 39.38523 | -75.38032 | 20981 ft | 411 kts | 30° |
| 2026-05-04 18:51 | 39.40860 | -75.35938 | 20985 ft | 420 kts | 30° |
| 2026-05-04 18:51 | 39.43300 | -75.33755 | 20979 ft | 424 kts | 30° |
| 2026-05-04 18:51 | 39.45701 | -75.31607 | 20980 ft | 424 kts | 30° |
| 2026-05-04 18:51 | 39.48145 | -75.29419 | 20981 ft | 424 kts | 30° |
| 2026-05-04 18:52 | 39.50551 | -75.27264 | 20982 ft | 423 kts | 31° |
| 2026-05-04 18:52 | 39.52932 | -75.25066 | 20981 ft | 423 kts | 31° |
| 2026-05-04 18:52 | 39.55309 | -75.22835 | 20982 ft | 423 kts | 31° |
| 2026-05-04 18:52 | 39.57699 | -75.20587 | 20980 ft | 423 kts | 31° |
| 2026-05-04 18:53 | 39.60083 | -75.18348 | 20980 ft | 423 kts | 31° |
| 2026-05-04 18:53 | 39.62451 | -75.16122 | 20979 ft | 424 kts | 31° |
| 2026-05-04 18:53 | 39.64846 | -75.13869 | 20977 ft | 424 kts | 31° |
| 2026-05-04 18:53 | 39.67208 | -75.11647 | 20976 ft | 423 kts | 31° |
| 2026-05-04 18:54 | 39.69585 | -75.09501 | 20838 ft | 411 kts | 29° |
| 2026-05-04 18:54 | 39.71915 | -75.07490 | 20218 ft | 397 kts | 28° |
| 2026-05-04 18:54 | 39.74175 | -75.05556 | 19586 ft | 385 kts | 28° |
| 2026-05-04 18:54 | 39.76371 | -75.03675 | 19000 ft | 376 kts | 28° |
| 2026-05-04 18:55 | 39.78576 | -75.01792 | 18422 ft | 384 kts | 28° |
| 2026-05-04 18:55 | 39.82925 | -74.98055 | 17277 ft | 373 kts | 28° |
| 2026-05-04 18:55 | 39.85104 | -74.96175 | 16691 ft | 376 kts | 29° |
| 2026-05-04 18:56 | 39.87234 | -74.94264 | 16090 ft | 365 kts | 30° |
| 2026-05-04 18:56 | 39.89318 | -74.92355 | 15537 ft | 372 kts | 31° |
| 2026-05-04 18:56 | 39.91329 | -74.90305 | 14917 ft | 367 kts | 36° |
| 2026-05-04 18:56 | 39.93178 | -74.88054 | 14339 ft | 365 kts | 40° |
| 2026-05-04 18:57 | 39.94949 | -74.85687 | 13778 ft | 370 kts | 41° |
| 2026-05-04 18:57 | 39.96689 | -74.83269 | 13172 ft | 359 kts | 42° |
| 2026-05-04 18:57 | 39.98368 | -74.80904 | 12633 ft | 364 kts | 42° |
| 2026-05-04 18:57 | 40.00090 | -74.78460 | 12029 ft | 358 kts | 43° |
| 2026-05-04 18:58 | 40.01737 | -74.76110 | 11475 ft | 357 kts | 43° |
| 2026-05-04 18:58 | 40.03411 | -74.73717 | 11030 ft | 349 kts | 44° |
| 2026-05-04 18:58 | 40.04986 | -74.71456 | 10718 ft | 334 kts | 44° |
| 2026-05-04 18:58 | 40.06515 | -74.69260 | 10264 ft | 323 kts | 44° |
| 2026-05-04 18:59 | 40.07983 | -74.67151 | 10088 ft | 303 kts | 44° |
| 2026-05-04 18:59 | 40.09351 | -74.65182 | 10013 ft | 287 kts | 44° |
| 2026-05-04 18:59 | 40.10720 | -74.63219 | 10009 ft | 293 kts | 44° |
| 2026-05-04 18:59 | 40.12098 | -74.61243 | 10000 ft | 295 kts | 44° |
| 2026-05-04 19:00 | 40.13469 | -74.59273 | 9999 ft | 294 kts | 44° |
| 2026-05-04 19:00 | 40.14834 | -74.57306 | 9999 ft | 294 kts | 44° |
| 2026-05-04 19:00 | 40.16212 | -74.55319 | 10000 ft | 295 kts | 44° |
| 2026-05-04 19:00 | 40.17583 | -74.53339 | 9999 ft | 295 kts | 44° |
| 2026-05-04 19:01 | 40.18952 | -74.51363 | 9997 ft | 295 kts | 44° |
| 2026-05-04 19:01 | 40.20333 | -74.49387 | 9997 ft | 295 kts | 42° |
| 2026-05-04 19:01 | 40.21796 | -74.47485 | 9997 ft | 294 kts | 39° |
| 2026-05-04 19:01 | 40.23265 | -74.45650 | 9997 ft | 294 kts | 39° |
| 2026-05-04 19:02 | 40.24737 | -74.43810 | 9997 ft | 294 kts | 39° |
| 2026-05-04 19:02 | 40.26215 | -74.41956 | 9998 ft | 294 kts | 39° |
| 2026-05-04 19:02 | 40.27676 | -74.40115 | 9998 ft | 294 kts | 40° |
| 2026-05-04 19:02 | 40.29146 | -74.38259 | 9996 ft | 294 kts | 40° |
| 2026-05-04 19:03 | 40.30609 | -74.36410 | 9978 ft | 294 kts | 40° |
| 2026-05-04 19:03 | 40.32078 | -74.34551 | 9977 ft | 294 kts | 40° |
| 2026-05-04 19:03 | 40.33558 | -74.32679 | 9977 ft | 294 kts | 40° |
| 2026-05-04 19:03 | 40.35029 | -74.30817 | 9976 ft | 294 kts | 40° |
| 2026-05-04 19:04 | 40.36484 | -74.28972 | 9977 ft | 294 kts | 40° |
| 2026-05-04 19:04 | 40.37953 | -74.27109 | 9976 ft | 294 kts | 40° |
| 2026-05-04 19:04 | 40.39423 | -74.25242 | 9974 ft | 294 kts | 40° |
| 2026-05-04 19:04 | 40.40903 | -74.23362 | 9972 ft | 294 kts | 40° |
| 2026-05-04 19:05 | 40.42372 | -74.21494 | 9970 ft | 294 kts | 40° |
| 2026-05-04 19:05 | 40.43821 | -74.19650 | 9969 ft | 294 kts | 40° |
| 2026-05-04 19:05 | 40.45292 | -74.17777 | 9968 ft | 294 kts | 40° |
| 2026-05-04 19:05 | 40.46761 | -74.15907 | 9968 ft | 293 kts | 40° |
| 2026-05-04 19:06 | 40.48222 | -74.14044 | 9972 ft | 294 kts | 40° |
| 2026-05-04 19:06 | 40.49668 | -74.12200 | 9972 ft | 294 kts | 40° |
| 2026-05-04 19:06 | 40.51141 | -74.10334 | 9969 ft | 293 kts | 38° |
| 2026-05-04 19:06 | 40.52769 | -74.08726 | 9969 ft | 290 kts | 30° |
| 2026-05-04 19:07 | 40.54432 | -74.07265 | 9966 ft | 290 kts | 29° |
| 2026-05-04 19:07 | 40.56129 | -74.05806 | 9964 ft | 290 kts | 29° |
| 2026-05-04 19:07 | 40.57794 | -74.04385 | 9954 ft | 283 kts | 28° |
| 2026-05-04 19:07 | 40.59419 | -74.02998 | 9848 ft | 279 kts | 28° |
| 2026-05-04 19:08 | 40.61073 | -74.01598 | 9429 ft | 289 kts | 29° |
| 2026-05-04 19:08 | 40.62753 | -74.00169 | 9001 ft | 283 kts | 29° |
| 2026-05-04 19:08 | 40.64293 | -73.98618 | 8556 ft | 282 kts | 49° |
| 2026-05-04 19:08 | 40.65213 | -73.96350 | 8156 ft | 280 kts | 67° |
| 2026-05-04 19:09 | 40.65855 | -73.93935 | 7680 ft | 284 kts | 72° |
| 2026-05-04 19:09 | 40.66328 | -73.91418 | 7107 ft | 282 kts | 77° |
| 2026-05-04 19:09 | 40.66686 | -73.88897 | 6562 ft | 280 kts | 81° |
| 2026-05-04 19:09 | 40.66964 | -73.86343 | 6003 ft | 274 kts | 83° |
| 2026-05-04 19:10 | 40.67182 | -73.83958 | 5584 ft | 264 kts | 81° |
| 2026-05-04 19:10 | 40.67631 | -73.81648 | 4881 ft | 256 kts | 68° |
| 2026-05-04 19:10 | 40.68390 | -73.79657 | 4342 ft | 231 kts | 57° |
| 2026-05-04 19:10 | 40.69259 | -73.77976 | 3839 ft | 211 kts | 49° |
| 2026-05-04 19:11 | 40.70158 | -73.76663 | 3587 ft | 186 kts | 39° |
| 2026-05-04 19:11 | 40.71114 | -73.75610 | 3213 ft | 170 kts | 31° |
| 2026-05-04 19:11 | 40.72105 | -73.74824 | 2750 ft | 165 kts | 20° |
| 2026-05-04 19:11 | 40.73139 | -73.74279 | 2277 ft | 157 kts | 12° |
| 2026-05-04 19:12 | 40.74185 | -73.73941 | 1806 ft | 154 kts | 2° |
| 2026-05-04 19:12 | 40.75850 | -73.74982 | 1395 ft | 130 kts | 289° |
| 2026-05-04 19:12 | 40.75927 | -73.76160 | 1331 ft | 130 kts | 260° |
| 2026-05-04 19:13 | 40.75682 | -73.77309 | 1200 ft | 133 kts | 253° |
| 2026-05-04 19:13 | 40.75399 | -73.78500 | 1058 ft | 138 kts | 253° |
| 2026-05-04 19:13 | 40.75139 | -73.79721 | 1093 ft | 135 kts | 256° |
| 2026-05-04 19:13 | 40.75052 | -73.80978 | 975 ft | 141 kts | 276° |
| 2026-05-04 19:14 | 40.75426 | -73.82143 | 823 ft | 139 kts | 302° |
| 2026-05-04 19:14 | 40.76026 | -73.83171 | 537 ft | 145 kts | 300° |
| 2026-05-04 19:14 | 40.76535 | -73.84286 | 303 ft | 136 kts | 298° |
| 2026-05-04 19:14 | 40.77027 | -73.85326 | 90 ft | 133 kts | 296° |
| 2026-05-04 19:15 | 40.77498 | -73.86326 | 10 ft | 112 kts | 298° |
| 2026-05-04 19:15 | 40.77755 | -73.86865 | 9 ft | 30 kts | 304° |
| 2026-05-04 19:15 | 40.77802 | -73.87012 | 10 ft | 14 kts | 283° |
| 2026-05-04 19:15 | 40.77799 | -73.87122 | 12 ft | 10 kts | 217° |
| 2026-05-04 19:16 | 40.77744 | -73.87072 | 12 ft | 13 kts | 123° |
| 2026-05-04 19:16 | 40.77690 | -73.86962 | 11 ft | 14 kts | 122° |
| 2026-05-04 19:16 | 40.77633 | -73.86842 | 10 ft | 15 kts | 123° |
| 2026-05-04 19:16 | 40.77575 | -73.86722 | 11 ft | 15 kts | 122° |
| 2026-05-04 19:17 | 40.77522 | -73.86608 | 11 ft | 14 kts | 122° |
| 2026-05-04 19:17 | 40.77468 | -73.86500 | 10 ft | 13 kts | 120° |
| 2026-05-04 19:17 | 40.77419 | -73.86393 | 9 ft | 13 kts | 121° |
| 2026-05-04 19:17 | 40.77371 | -73.86297 | 9 ft | 12 kts | 128° |
| 2026-05-04 19:18 | 40.77289 | -73.86277 | 9 ft | 12 kts | 188° |
| 2026-05-04 19:18 | 40.77219 | -73.86278 | 10 ft | 7 kts | 165° |
| 2026-05-04 19:18 | 40.77180 | -73.86255 | 10 ft | 5 kts | 175° |
| 2026-05-04 19:18 | 40.77150 | -73.86277 | 11 ft | 5 kts | 220° |
| 2026-05-04 19:19 | 40.77139 | -73.86289 | 11 ft | 0 kts | 222° |